Terminal Aerodrome Forecast
Issued by NWS Denver/Boulder, CO

Home | Current Version | Previous Version | Text Only | Print | Product List | Glossary On
Versions: 1 2 3 4 5 6 7 8 9 10 11 12 13 14 15 16 17 18 19 20 21 22 23 24 25 26 27 28 29 30 31 32 33 34 35 36 37 38 39 40 41 42 43 44 45 46 47 48 49 50
000
FTUS45 KBOU 071038 AAC
TAFDEN
TAF AMD
KDEN 071038Z 0711/0812 06007KT 5SM -SN BR OVC010
     FM071110 04008KT 3SM -SN BR BKN006 OVC008
      TEMPO 0712/0714 1 1/2SM -SN BR BKN006
     FM071500 03008KT 5SM -SN BKN012 OVC025
     FM071700 02010KT P6SM VCSH SCT015 BKN025
     FM072200 04008KT P6SM SCT050 BKN080
     FM080200 16006KT P6SM FEW050
     FM080800 VRB05KT P6SM VCFG FEW001=

USA.gov is the U.S. government's official web portal to all federal, state and local government web resources and services.